createdAt,value
2023-01-29T00:01:16.835Z,84.98
2023-01-29T00:03:52.363Z,84.89
2023-01-29T00:06:24.881Z,84.88
2023-01-29T00:08:57.527Z,84.91
2023-01-29T00:11:31.310Z,84.71
2023-01-29T00:14:04.210Z,84.54
2023-01-29T00:16:37.071Z,84.81
2023-01-29T00:19:09.692Z,84.19
2023-01-29T00:21:42.289Z,83.91
2023-01-29T00:24:14.859Z,84.09
2023-01-29T00:26:50.057Z,83.99
2023-01-29T00:29:22.665Z,83.21
2023-01-29T00:31:55.454Z,83.73
2023-01-29T00:34:28.084Z,83.24
2023-01-29T00:37:04.580Z,83.24
2023-01-29T00:39:47.952Z,82.96
2023-01-29T00:42:39.359Z,82.84
2023-01-29T00:45:12.982Z,82.86
2023-01-29T00:47:45.648Z,82.70
2023-01-29T00:50:18.857Z,82.44
2023-01-29T00:52:52.863Z,82.30
2023-01-29T00:55:25.451Z,82.31
2023-01-29T00:57:58.034Z,82.35
2023-01-29T01:00:30.676Z,82.59
2023-01-29T01:03:06.543Z,82.51
2023-01-29T01:05:39.229Z,82.26
2023-01-29T01:08:30.452Z,82.55
2023-01-29T01:11:06.318Z,82.60
2023-01-29T01:13:38.866Z,82.89
2023-01-29T01:16:17.133Z,82.72
2023-01-29T01:18:49.693Z,82.66
2023-01-29T01:21:22.265Z,82.84
2023-01-29T01:23:54.826Z,82.36
2023-01-29T01:26:27.579Z,83.33
2023-01-29T01:29:00.198Z,83.36
2023-01-29T01:31:32.881Z,82.29
2023-01-29T01:34:05.447Z,82.98
2023-01-29T01:36:37.936Z,82.40
2023-01-29T01:39:10.575Z,82.94
2023-01-29T01:41:43.167Z,82.61
2023-01-29T01:44:53.411Z,82.36
2023-01-29T01:47:40.540Z,82.58
2023-01-29T01:50:17.635Z,82.88
2023-01-29T01:52:59.438Z,82.88
2023-01-29T01:55:35.318Z,83.46
2023-01-29T01:58:19.204Z,83.55
2023-01-29T02:00:52.528Z,83.82
2023-01-29T02:03:49.914Z,83.75
2023-01-29T02:06:41.387Z,83.90
2023-01-29T02:09:38.843Z,83.99
2023-01-29T02:12:14.598Z,83.97
2023-01-29T02:14:48.053Z,83.88
2023-01-29T02:17:20.773Z,84.29
2023-01-29T02:20:15.660Z,84.93
2023-01-29T02:22:59.076Z,84.69
2023-01-29T02:26:15.465Z,84.49
2023-01-29T02:29:21.474Z,84.43
2023-01-29T02:32:21.854Z,84.18
2023-01-29T02:35:32.049Z,84.13
2023-01-29T02:38:36.410Z,83.95
2023-01-29T02:41:35.002Z,83.72
2023-01-29T02:44:42.415Z,83.73
2023-01-29T02:47:48.704Z,83.36
2023-01-29T02:50:43.273Z,83.18
2023-01-29T02:53:27.329Z,82.63
2023-01-29T02:56:22.350Z,82.50
2023-01-29T02:59:03.139Z,82.74
2023-01-29T03:02:02.386Z,82.46
2023-01-29T03:04:45.713Z,81.95
2023-01-29T03:07:44.247Z,81.72
2023-01-29T03:10:30.910Z,81.36
2023-01-29T03:13:14.841Z,81.78
2023-01-29T03:16:01.415Z,81.05
2023-01-29T03:18:51.857Z,80.84
2023-01-29T03:21:55.102Z,80.90
2023-01-29T03:24:54.736Z,80.94
2023-01-29T03:27:55.187Z,80.78
2023-01-29T03:30:51.350Z,81.01
2023-01-29T03:33:32.235Z,80.48
2023-01-29T03:36:20.005Z,80.49
2023-01-29T03:38:53.108Z,80.29
2023-01-29T03:41:36.747Z,80.61
2023-01-29T03:44:53.203Z,79.94
2023-01-29T03:47:48.437Z,80.16
2023-01-29T03:50:59.588Z,79.89
2023-01-29T03:54:05.263Z,80.09
2023-01-29T03:56:59.824Z,79.60
2023-01-29T03:59:55.459Z,79.49
2023-01-29T04:02:38.957Z,80.29
2023-01-29T04:05:19.607Z,80.43
2023-01-29T04:08:05.192Z,79.71
2023-01-29T04:10:42.395Z,79.73
2023-01-29T04:13:17.865Z,79.40
2023-01-29T04:15:58.052Z,79.57
2023-01-29T04:18:30.752Z,79.50
2023-01-29T04:21:07.280Z,79.63
2023-01-29T04:23:39.955Z,79.52
2023-01-29T04:26:24.539Z,79.56
2023-01-29T04:29:41.648Z,79.00
2023-01-29T04:32:32.424Z,79.18
2023-01-29T04:35:39.653Z,79.59
2023-01-29T04:38:28.245Z,79.17
2023-01-29T04:41:39.941Z,79.40
2023-01-29T04:44:52.194Z,78.86
2023-01-29T04:47:39.892Z,78.29
2023-01-29T04:50:21.969Z,78.58
2023-01-29T04:53:07.550Z,78.78
2023-01-29T04:55:51.512Z,79.22
2023-01-29T04:58:52.902Z,79.07
2023-01-29T05:01:33.171Z,78.92
2023-01-29T05:04:14.037Z,79.18
2023-01-29T05:06:48.794Z,78.93
2023-01-29T05:09:23.558Z,79.37
2023-01-29T05:11:56.990Z,79.80
2023-01-29T05:14:34.605Z,79.50
2023-01-29T05:17:16.069Z,79.25
2023-01-29T05:19:49.144Z,79.08
2023-01-29T05:22:23.255Z,79.04
2023-01-29T05:24:55.763Z,78.92
2023-01-29T05:27:54.847Z,79.12
2023-01-29T05:30:27.807Z,78.95
2023-01-29T05:33:00.476Z,79.09
2023-01-29T05:35:33.919Z,79.88
2023-01-29T05:38:06.467Z,79.69
2023-01-29T05:40:39.358Z,78.88
2023-01-29T05:43:22.340Z,79.14
2023-01-29T05:45:57.137Z,78.25
2023-01-29T05:48:31.416Z,79.03
2023-01-29T05:51:05.196Z,78.55
2023-01-29T05:53:37.836Z,78.28
2023-01-29T05:56:10.567Z,78.08
2023-01-29T05:58:43.105Z,78.58
2023-01-29T06:01:20.678Z,78.71
2023-01-29T06:03:53.349Z,78.34
2023-01-29T06:06:25.947Z,78.36
2023-01-29T06:08:58.548Z,78.40
2023-01-29T06:11:31.178Z,78.58
2023-01-29T06:14:03.706Z,78.61
2023-01-29T06:16:36.351Z,78.29
2023-01-29T06:19:09.004Z,78.27
2023-01-29T06:21:41.629Z,78.02
2023-01-29T06:24:14.436Z,77.81
2023-01-29T06:26:47.262Z,77.67
2023-01-29T06:29:19.830Z,78.10
2023-01-29T06:31:52.439Z,77.86
2023-01-29T06:34:25.024Z,78.05
2023-01-29T06:36:57.684Z,78.12
2023-01-29T06:39:30.327Z,78.18
2023-01-29T06:42:02.974Z,78.71
2023-01-29T06:44:38.254Z,78.60
2023-01-29T06:47:10.779Z,78.38
2023-01-29T06:49:44.699Z,78.19
2023-01-29T06:52:17.309Z,78.27
2023-01-29T06:54:49.865Z,78.43
2023-01-29T06:57:23.872Z,78.53
2023-01-29T06:59:56.438Z,78.16
2023-01-29T07:02:29.480Z,78.31
2023-01-29T07:05:02.090Z,78.05
2023-01-29T07:07:36.982Z,78.03
2023-01-29T07:10:10.407Z,78.39
2023-01-29T07:12:42.988Z,77.86
2023-01-29T07:15:20.225Z,78.30
2023-01-29T07:18:05.494Z,78.60
2023-01-29T07:20:40.418Z,78.24
2023-01-29T07:23:14.249Z,78.35
2023-01-29T07:25:49.773Z,77.96
2023-01-29T07:28:22.546Z,77.95
2023-01-29T07:31:00.358Z,77.62
2023-01-29T07:33:33.612Z,78.06
2023-01-29T07:36:11.338Z,78.11
2023-01-29T07:38:44.086Z,78.01
2023-01-29T07:41:16.968Z,77.40
2023-01-29T07:43:49.486Z,77.71
2023-01-29T07:46:22.166Z,77.29
2023-01-29T07:48:54.817Z,77.83
2023-01-29T07:51:27.425Z,77.72
2023-01-29T07:54:00.034Z,77.41
2023-01-29T07:56:32.653Z,77.42
2023-01-29T07:59:05.177Z,77.56
2023-01-29T08:01:37.804Z,77.58
2023-01-29T08:04:10.378Z,76.96
2023-01-29T08:06:42.924Z,77.61
2023-01-29T08:09:15.454Z,77.58
2023-01-29T08:11:47.981Z,77.60
2023-01-29T08:14:20.560Z,77.48
2023-01-29T08:16:53.207Z,76.69
2023-01-29T08:19:25.787Z,77.17
2023-01-29T08:21:58.328Z,76.74
2023-01-29T08:24:41.616Z,76.63
2023-01-29T08:27:23.425Z,76.18
2023-01-29T08:29:55.951Z,76.29
2023-01-29T08:32:28.443Z,76.42
2023-01-29T08:35:01.046Z,76.56
2023-01-29T08:37:33.659Z,76.28
2023-01-29T08:40:09.448Z,76.78
2023-01-29T08:42:42.044Z,77.21
2023-01-29T08:45:14.669Z,77.33
2023-01-29T08:47:49.427Z,76.79
2023-01-29T08:50:22.206Z,76.41
2023-01-29T08:52:59.257Z,76.39
2023-01-29T08:55:31.781Z,76.29
2023-01-29T08:58:06.157Z,75.90
2023-01-29T09:00:39.353Z,75.45
2023-01-29T09:03:12.608Z,75.90
2023-01-29T09:05:46.737Z,75.82
2023-01-29T09:08:19.409Z,75.57
2023-01-29T09:10:51.942Z,75.92
2023-01-29T09:13:24.550Z,75.16
2023-01-29T09:16:01.602Z,76.01
2023-01-29T09:18:34.204Z,75.58
2023-01-29T09:21:06.792Z,75.22
2023-01-29T09:23:39.362Z,75.36
2023-01-29T09:26:11.882Z,76.23
2023-01-29T09:28:44.473Z,75.33
2023-01-29T09:31:17.006Z,75.78
2023-01-29T09:33:49.695Z,75.83
2023-01-29T09:36:22.211Z,75.39
2023-01-29T09:38:54.968Z,75.21
2023-01-29T09:42:01.787Z,75.11
2023-01-29T09:44:49.578Z,75.13
2023-01-29T09:47:27.025Z,74.86
2023-01-29T09:50:13.562Z,75.07
2023-01-29T09:53:02.440Z,74.87
2023-01-29T09:55:49.412Z,74.61
2023-01-29T09:58:37.128Z,73.97
2023-01-29T10:01:16.776Z,74.45
2023-01-29T10:04:01.354Z,74.58
2023-01-29T10:07:17.177Z,73.38
2023-01-29T10:10:06.522Z,73.60
2023-01-29T10:13:06.787Z,74.44
2023-01-29T10:16:20.174Z,73.28
2023-01-29T10:19:30.063Z,73.71
2023-01-29T10:22:35.416Z,73.54
2023-01-29T10:25:18.286Z,73.38
2023-01-29T10:27:56.323Z,73.47
2023-01-29T10:30:45.711Z,73.13
2023-01-29T10:33:39.076Z,72.79
2023-01-29T10:36:49.635Z,72.19
2023-01-29T10:39:25.396Z,72.94
2023-01-29T10:42:26.729Z,73.20
2023-01-29T10:45:33.168Z,72.42
2023-01-29T10:48:34.103Z,71.78
2023-01-29T10:51:46.707Z,72.07
2023-01-29T10:54:37.971Z,72.48
2023-01-29T10:57:58.547Z,71.33
2023-01-29T11:00:39.421Z,70.89
2023-01-29T11:06:28.555Z,70.76
2023-01-29T11:09:25.586Z,71.16
2023-01-29T11:12:06.106Z,71.03
2023-01-29T11:14:56.931Z,70.20
2023-01-29T11:17:29.585Z,69.91
2023-01-29T11:20:02.172Z,69.24
2023-01-29T11:22:35.297Z,69.55
2023-01-29T11:25:17.778Z,70.00
2023-01-29T11:27:57.216Z,69.15
2023-01-29T11:30:39.713Z,68.77
2023-01-29T11:33:21.788Z,69.21
2023-01-29T11:35:55.691Z,68.42
2023-01-29T11:38:30.589Z,69.01
2023-01-29T11:41:18.818Z,68.00
2023-01-29T11:43:51.295Z,68.40
2023-01-29T11:46:23.929Z,67.87
2023-01-29T11:48:59.482Z,68.02
2023-01-29T11:51:41.711Z,67.03
2023-01-29T11:54:20.470Z,68.05
2023-01-29T11:56:53.557Z,67.90
2023-01-29T11:59:48.868Z,68.29
2023-01-29T12:02:28.045Z,67.65
2023-01-29T12:05:14.758Z,67.52
2023-01-29T12:07:53.217Z,67.42
2023-01-29T12:10:41.707Z,67.27
2023-01-29T12:13:15.810Z,67.12
2023-01-29T12:15:49.338Z,66.70
2023-01-29T12:18:37.633Z,67.22
2023-01-29T12:21:38.540Z,66.81
2023-01-29T12:24:41.406Z,66.93
2023-01-29T12:27:35.489Z,67.05
2023-01-29T12:30:30.531Z,67.51
2023-01-29T12:33:41.055Z,66.66
2023-01-29T12:36:31.480Z,67.19
2023-01-29T12:39:04.714Z,66.75
2023-01-29T12:41:57.824Z,67.23
2023-01-29T12:44:43.516Z,67.03
2023-01-29T12:47:39.800Z,66.81
2023-01-29T12:50:26.416Z,66.69
2023-01-29T12:53:29.532Z,66.76
2023-01-29T12:56:32.661Z,67.53
2023-01-29T12:59:22.416Z,66.99
2023-01-29T13:02:21.928Z,67.69
2023-01-29T13:05:47.209Z,68.77
2023-01-29T13:08:29.424Z,67.71
2023-01-29T13:11:11.962Z,68.24
2023-01-29T13:14:03.333Z,68.55
2023-01-29T13:16:45.999Z,68.75
2023-01-29T13:19:33.055Z,68.51
2023-01-29T13:22:36.463Z,68.44
2023-01-29T13:25:17.390Z,69.64
2023-01-29T13:27:50.627Z,68.47
2023-01-29T13:30:29.997Z,68.52
2023-01-29T13:33:09.842Z,68.65
2023-01-29T13:35:46.270Z,68.45
2023-01-29T13:38:29.652Z,68.82
2023-01-29T13:41:06.378Z,69.32
2023-01-29T13:43:43.604Z,68.93
2023-01-29T13:46:21.432Z,69.40
2023-01-29T13:49:00.896Z,69.15
2023-01-29T13:51:36.705Z,68.83
2023-01-29T13:54:24.372Z,69.33
2023-01-29T13:57:01.718Z,69.24
2023-01-29T13:59:55.289Z,69.25
2023-01-29T14:02:30.087Z,69.15
2023-01-29T14:05:31.124Z,69.35
2023-01-29T14:08:26.867Z,69.38
2023-01-29T14:11:17.811Z,69.87
2023-01-29T14:13:52.272Z,70.15
2023-01-29T14:16:24.760Z,69.88
2023-01-29T14:19:02.729Z,69.93
2023-01-29T14:21:37.672Z,69.59
2023-01-29T14:24:24.664Z,69.69
2023-01-29T14:26:58.125Z,69.39
2023-01-29T14:29:40.880Z,69.87
2023-01-29T14:32:25.059Z,69.48
2023-01-29T14:35:03.941Z,69.53
2023-01-29T14:37:41.430Z,69.44
2023-01-29T14:40:20.282Z,69.32
2023-01-29T14:43:19.815Z,69.98
2023-01-29T14:45:52.460Z,69.24
2023-01-29T14:48:45.748Z,69.95
2023-01-29T14:51:20.576Z,69.72
2023-01-29T14:54:04.764Z,69.98
2023-01-29T14:56:49.125Z,70.06
2023-01-29T14:59:59.705Z,69.38
2023-01-29T15:02:45.536Z,69.39
2023-01-29T15:05:24.666Z,69.46
2023-01-29T15:08:30.003Z,69.80
2023-01-29T15:11:35.576Z,69.32
2023-01-29T15:14:24.484Z,69.87
2023-01-29T15:17:09.003Z,69.74
2023-01-29T15:19:48.103Z,70.04
2023-01-29T15:22:24.979Z,69.24
2023-01-29T15:25:07.210Z,69.65
2023-01-29T15:27:45.515Z,69.54
2023-01-29T15:30:26.317Z,70.07
2023-01-29T15:33:00.670Z,69.63
2023-01-29T15:35:39.687Z,69.25
2023-01-29T15:38:19.869Z,69.58
2023-01-29T15:41:02.596Z,69.00
2023-01-29T15:43:48.583Z,69.72
2023-01-29T15:46:35.507Z,69.75
2023-01-29T15:49:20.995Z,70.34
2023-01-29T15:52:00.845Z,69.64
2023-01-29T15:54:35.695Z,69.74
2023-01-29T15:57:21.241Z,69.85
2023-01-29T15:59:57.704Z,70.90
2023-01-29T16:02:41.843Z,69.53
2023-01-29T16:05:23.735Z,70.09
2023-01-29T16:07:57.831Z,70.20
2023-01-29T16:10:32.524Z,70.67
2023-01-29T16:13:05.280Z,70.21
2023-01-29T16:15:56.374Z,70.49
2023-01-29T16:18:34.509Z,70.05
2023-01-29T16:21:30.630Z,70.42
2023-01-29T16:24:13.379Z,70.12
2023-01-29T16:26:49.778Z,70.39
2023-01-29T16:29:24.654Z,70.95
2023-01-29T16:32:01.830Z,70.49
2023-01-29T16:34:40.010Z,70.37
2023-01-29T16:37:27.826Z,70.67
2023-01-29T16:40:00.510Z,70.67
2023-01-29T16:42:34.187Z,70.75
2023-01-29T16:45:27.891Z,70.75
2023-01-29T16:48:22.759Z,70.25
2023-01-29T16:51:12.299Z,70.39
2023-01-29T16:54:18.248Z,70.68
2023-01-29T16:57:00.458Z,70.65
2023-01-29T16:59:38.228Z,71.44
2023-01-29T17:02:28.484Z,70.63
2023-01-29T17:08:00.210Z,70.64
2023-01-29T17:10:33.797Z,70.96
2023-01-29T17:13:10.168Z,70.94
2023-01-29T17:15:45.615Z,71.10
2023-01-29T17:18:22.110Z,70.52
2023-01-29T17:20:54.996Z,70.87
2023-01-29T17:23:28.120Z,70.89
2023-01-29T17:26:00.711Z,70.93
2023-01-29T17:28:33.842Z,71.40
2023-01-29T17:31:07.876Z,70.67
2023-01-29T17:33:43.498Z,70.74
2023-01-29T17:36:18.019Z,70.68
2023-01-29T17:38:50.567Z,70.96
2023-01-29T17:41:28.405Z,70.91
2023-01-29T17:44:00.924Z,70.97
2023-01-29T17:46:33.563Z,70.59
2023-01-29T17:49:29.870Z,70.99
2023-01-29T17:52:02.383Z,70.72
2023-01-29T17:54:35.285Z,70.80
2023-01-29T17:57:13.845Z,70.54
2023-01-29T17:59:46.809Z,70.99
2023-01-29T18:02:29.519Z,70.86
2023-01-29T18:05:02.497Z,70.96
2023-01-29T18:07:37.962Z,71.39
2023-01-29T18:10:19.364Z,70.97
2023-01-29T18:12:51.965Z,71.92
2023-01-29T18:15:24.449Z,72.42
2023-01-29T18:17:58.204Z,73.02
2023-01-29T18:20:36.598Z,73.13
2023-01-29T18:23:09.165Z,74.12
2023-01-29T18:25:43.108Z,74.63
2023-01-29T18:28:17.695Z,74.76
2023-01-29T18:30:50.898Z,75.36
2023-01-29T18:33:24.221Z,75.30
2023-01-29T18:35:57.315Z,75.38
2023-01-29T18:38:29.835Z,75.81
2023-01-29T18:41:10.528Z,76.39
2023-01-29T18:43:44.103Z,75.67
2023-01-29T18:46:18.858Z,76.78
2023-01-29T18:48:51.397Z,76.36
2023-01-29T18:51:23.919Z,77.12
2023-01-29T18:53:56.514Z,77.28
2023-01-29T18:56:29.151Z,77.47
2023-01-29T18:59:01.642Z,77.16
2023-01-29T19:01:34.175Z,77.54
2023-01-29T19:04:06.915Z,77.82
2023-01-29T19:06:39.583Z,76.72
2023-01-29T19:09:12.105Z,77.63
2023-01-29T19:11:44.648Z,77.92
2023-01-29T19:14:17.227Z,77.27
2023-01-29T19:16:50.555Z,77.04
2023-01-29T19:19:23.174Z,77.58
2023-01-29T19:21:55.860Z,77.48
2023-01-29T19:24:28.463Z,77.20
2023-01-29T19:27:01.976Z,77.44
2023-01-29T19:29:34.813Z,77.50
2023-01-29T19:32:08.896Z,77.77
2023-01-29T19:34:41.503Z,77.57
2023-01-29T19:37:14.495Z,77.80
2023-01-29T19:39:47.365Z,77.81
2023-01-29T19:42:21.010Z,77.93
2023-01-29T19:44:53.536Z,77.88
2023-01-29T19:47:26.202Z,77.57
2023-01-29T19:49:58.749Z,77.79
2023-01-29T19:52:51.388Z,78.13
2023-01-29T19:55:24.495Z,78.45
2023-01-29T19:57:58.696Z,78.33
2023-01-29T20:00:31.547Z,78.61
2023-01-29T20:03:04.095Z,78.24
2023-01-29T20:05:38.756Z,78.06
2023-01-29T20:08:11.328Z,78.37
2023-01-29T20:10:48.706Z,78.17
2023-01-29T20:13:21.509Z,78.67
2023-01-29T20:15:56.124Z,78.39
2023-01-29T20:18:29.476Z,78.07
2023-01-29T20:21:09.314Z,78.24
2023-01-29T20:23:44.894Z,79.10
2023-01-29T20:26:19.755Z,78.99
2023-01-29T20:28:52.373Z,79.61
2023-01-29T20:31:25.297Z,79.55
2023-01-29T20:33:58.126Z,79.54
2023-01-29T20:36:30.645Z,79.87
2023-01-29T20:39:03.611Z,79.79
2023-01-29T20:41:37.130Z,79.03
2023-01-29T20:44:09.660Z,80.39
2023-01-29T20:46:42.497Z,80.01
2023-01-29T20:49:17.151Z,80.27
2023-01-29T20:51:49.703Z,79.86
2023-01-29T20:54:22.385Z,79.83
2023-01-29T20:56:55.484Z,79.71
2023-01-29T20:59:29.267Z,80.57
2023-01-29T21:02:01.990Z,80.31
2023-01-29T21:04:34.637Z,79.88
2023-01-29T21:07:07.227Z,80.92
2023-01-29T21:09:39.867Z,80.89
2023-01-29T21:12:12.943Z,80.63
2023-01-29T21:14:46.049Z,81.07
2023-01-29T21:17:18.613Z,81.37
2023-01-29T21:19:51.262Z,81.57
2023-01-29T21:22:24.218Z,81.13
2023-01-29T21:24:57.349Z,81.10
2023-01-29T21:27:29.844Z,81.57
2023-01-29T21:30:02.311Z,81.94
2023-01-29T21:32:34.908Z,81.80
2023-01-29T21:35:08.138Z,82.32
2023-01-29T21:37:41.580Z,81.91
2023-01-29T21:40:14.756Z,82.29
2023-01-29T21:43:07.215Z,82.38
2023-01-29T21:45:41.377Z,81.92
2023-01-29T21:48:14.090Z,82.10
2023-01-29T21:50:48.595Z,82.45
2023-01-29T21:53:21.266Z,82.22
2023-01-29T21:56:00.709Z,82.47
2023-01-29T21:58:33.471Z,82.87
2023-01-29T22:01:35.106Z,83.13
2023-01-29T22:03:59.812Z,83.22
2023-01-29T22:06:32.825Z,83.34
2023-01-29T22:09:05.366Z,83.62
2023-01-29T22:11:38.248Z,82.91
2023-01-29T22:14:12.092Z,83.05
2023-01-29T22:16:45.796Z,83.84
2023-01-29T22:19:18.481Z,83.58
2023-01-29T22:21:54.236Z,83.66
2023-01-29T22:24:26.787Z,83.34
2023-01-29T22:26:59.309Z,83.43
2023-01-29T22:29:31.847Z,83.69
2023-01-29T22:32:06.213Z,84.15
2023-01-29T22:34:38.759Z,84.04
2023-01-29T22:37:11.270Z,84.44
2023-01-29T22:39:43.767Z,84.08
2023-01-29T22:42:20.367Z,83.88
2023-01-29T22:44:52.908Z,83.92
2023-01-29T22:47:25.423Z,83.69
2023-01-29T22:49:58.023Z,83.62
2023-01-29T22:52:38.297Z,84.34
2023-01-29T22:55:12.954Z,84.46
2023-01-29T22:57:50.012Z,84.47
2023-01-29T23:00:22.851Z,84.29
2023-01-29T23:02:55.383Z,84.28
2023-01-29T23:05:27.947Z,84.53
2023-01-29T23:08:01.072Z,84.76
2023-01-29T23:10:33.734Z,84.04
2023-01-29T23:13:06.347Z,85.08
2023-01-29T23:15:38.947Z,85.12
2023-01-29T23:18:11.651Z,84.64
2023-01-29T23:20:44.242Z,85.17
2023-01-29T23:23:16.805Z,84.36
2023-01-29T23:26:07.962Z,84.84
2023-01-29T23:28:40.517Z,84.80
2023-01-29T23:31:13.312Z,84.86
2023-01-29T23:33:45.904Z,84.90
2023-01-29T23:36:18.477Z,84.61
2023-01-29T23:38:51.024Z,84.69
2023-01-29T23:41:23.676Z,85.55
2023-01-29T23:43:56.235Z,85.25
2023-01-29T23:46:28.866Z,85.69
2023-01-29T23:49:01.599Z,85.22
2023-01-29T23:51:34.168Z,85.57
2023-01-29T23:54:06.972Z,85.05
2023-01-29T23:56:39.714Z,85.23
2023-01-29T23:59:12.887Z,85.31
